sensor_id;sensor_type;location;lat;lon;timestamp;temperature;humidity
67777;DHT22;54576;52.020;5.536;2022-12-24T00:00:21;10.30;99.90
67777;DHT22;54576;52.020;5.536;2022-12-24T00:02:47;10.30;99.90
67777;DHT22;54576;52.020;5.536;2022-12-24T00:05:12;10.30;99.90
67777;DHT22;54576;52.020;5.536;2022-12-24T00:07:38;10.30;99.90
67777;DHT22;54576;52.020;5.536;2022-12-24T00:10:04;10.30;99.90
67777;DHT22;54576;52.020;5.536;2022-12-24T00:12:30;10.30;99.90
67777;DHT22;54576;52.020;5.536;2022-12-24T00:14:56;10.30;99.90
67777;DHT22;54576;52.020;5.536;2022-12-24T00:17:23;10.30;99.90
67777;DHT22;54576;52.020;5.536;2022-12-24T00:19:50;10.30;99.90
67777;DHT22;54576;52.020;5.536;2022-12-24T00:22:18;10.30;99.90
67777;DHT22;54576;52.020;5.536;2022-12-24T00:24:44;10.20;99.90
67777;DHT22;54576;52.020;5.536;2022-12-24T00:27:09;10.30;99.90
67777;DHT22;54576;52.020;5.536;2022-12-24T00:29:35;10.30;99.90
67777;DHT22;54576;52.020;5.536;2022-12-24T00:32:00;10.30;99.90
67777;DHT22;54576;52.020;5.536;2022-12-24T00:34:26;10.20;99.90
67777;DHT22;54576;52.020;5.536;2022-12-24T00:36:52;10.20;99.90
67777;DHT22;54576;52.020;5.536;2022-12-24T00:39:18;10.20;99.90
67777;DHT22;54576;52.020;5.536;2022-12-24T00:41:43;10.20;99.90
67777;DHT22;54576;52.020;5.536;2022-12-24T00:44:09;10.20;99.90
67777;DHT22;54576;52.020;5.536;2022-12-24T00:46:39;10.20;99.90
67777;DHT22;54576;52.020;5.536;2022-12-24T00:49:06;10.20;99.90
67777;DHT22;54576;52.020;5.536;2022-12-24T00:51:33;10.10;99.90
67777;DHT22;54576;52.020;5.536;2022-12-24T00:53:59;10.10;99.90
67777;DHT22;54576;52.020;5.536;2022-12-24T00:56:25;10.10;99.90
67777;DHT22;54576;52.020;5.536;2022-12-24T00:58:52;10.10;99.90
67777;DHT22;54576;52.020;5.536;2022-12-24T01:01:18;10.00;99.90
67777;DHT22;54576;52.020;5.536;2022-12-24T01:03:44;10.00;99.90
67777;DHT22;54576;52.020;5.536;2022-12-24T01:06:18;10.00;99.90
67777;DHT22;54576;52.020;5.536;2022-12-24T01:08:43;10.00;99.90
67777;DHT22;54576;52.020;5.536;2022-12-24T01:11:10;9.90;99.90
67777;DHT22;54576;52.020;5.536;2022-12-24T01:13:36;9.90;99.90
67777;DHT22;54576;52.020;5.536;2022-12-24T01:16:03;9.90;99.90
67777;DHT22;54576;52.020;5.536;2022-12-24T01:18:29;9.90;99.90
67777;DHT22;54576;52.020;5.536;2022-12-24T01:21:00;9.80;99.90
67777;DHT22;54576;52.020;5.536;2022-12-24T01:23:27;9.80;99.90
67777;DHT22;54576;52.020;5.536;2022-12-24T01:25:52;9.80;99.90
67777;DHT22;54576;52.020;5.536;2022-12-24T01:28:19;9.80;99.90
67777;DHT22;54576;52.020;5.536;2022-12-24T01:30:45;9.70;99.90
67777;DHT22;54576;52.020;5.536;2022-12-24T01:33:12;9.70;99.90
67777;DHT22;54576;52.020;5.536;2022-12-24T01:35:41;9.60;99.90
67777;DHT22;54576;52.020;5.536;2022-12-24T01:38:08;9.60;99.90
67777;DHT22;54576;52.020;5.536;2022-12-24T01:40:36;9.50;99.90
67777;DHT22;54576;52.020;5.536;2022-12-24T01:43:21;9.50;99.90
67777;DHT22;54576;52.020;5.536;2022-12-24T01:46:01;9.40;99.90
67777;DHT22;54576;52.020;5.536;2022-12-24T01:48:48;9.40;99.90
67777;DHT22;54576;52.020;5.536;2022-12-24T01:51:36;9.30;99.90
67777;DHT22;54576;52.020;5.536;2022-12-24T01:56:42;9.20;99.90
67777;DHT22;54576;52.020;5.536;2022-12-24T01:59:11;9.20;99.90
67777;DHT22;54576;52.020;5.536;2022-12-24T02:01:39;9.20;99.90
67777;DHT22;54576;52.020;5.536;2022-12-24T02:04:14;9.10;99.90
67777;DHT22;54576;52.020;5.536;2022-12-24T02:06:42;9.00;99.90
67777;DHT22;54576;52.020;5.536;2022-12-24T02:09:07;9.00;99.90
67777;DHT22;54576;52.020;5.536;2022-12-24T02:11:35;9.00;99.90
67777;DHT22;54576;52.020;5.536;2022-12-24T02:14:03;9.00;99.90
67777;DHT22;54576;52.020;5.536;2022-12-24T02:27:54;8.80;99.90
67777;DHT22;54576;52.020;5.536;2022-12-24T02:30:29;8.80;99.90
67777;DHT22;54576;52.020;5.536;2022-12-24T02:33:26;8.80;99.90
67777;DHT22;54576;52.020;5.536;2022-12-24T02:38:51;8.80;99.90
67777;DHT22;54576;52.020;5.536;2022-12-24T02:41:29;8.80;99.90
67777;DHT22;54576;52.020;5.536;2022-12-24T02:44:17;8.70;99.90
67777;DHT22;54576;52.020;5.536;2022-12-24T02:46:45;8.70;99.90
67777;DHT22;54576;52.020;5.536;2022-12-24T02:49:13;8.60;99.90
67777;DHT22;54576;52.020;5.536;2022-12-24T02:51:38;8.60;99.90
67777;DHT22;54576;52.020;5.536;2022-12-24T02:54:04;8.60;99.90
67777;DHT22;54576;52.020;5.536;2022-12-24T02:56:40;8.60;99.90
67777;DHT22;54576;52.020;5.536;2022-12-24T03:02:12;8.60;99.90
67777;DHT22;54576;52.020;5.536;2022-12-24T03:04:58;8.50;99.90
67777;DHT22;54576;52.020;5.536;2022-12-24T03:07:37;8.50;99.90
67777;DHT22;54576;52.020;5.536;2022-12-24T03:10:22;8.50;99.90
67777;DHT22;54576;52.020;5.536;2022-12-24T03:12:59;8.50;99.90
67777;DHT22;54576;52.020;5.536;2022-12-24T03:15:27;8.40;99.90
67777;DHT22;54576;52.020;5.536;2022-12-24T03:17:58;8.50;99.90
67777;DHT22;54576;52.020;5.536;2022-12-24T03:20:30;8.40;99.90
67777;DHT22;54576;52.020;5.536;2022-12-24T03:22:57;8.40;99.90
67777;DHT22;54576;52.020;5.536;2022-12-24T03:25:24;8.40;99.90
67777;DHT22;54576;52.020;5.536;2022-12-24T03:27:51;8.40;99.90
67777;DHT22;54576;52.020;5.536;2022-12-24T03:30:17;8.40;99.90
67777;DHT22;54576;52.020;5.536;2022-12-24T03:32:43;8.50;99.90
67777;DHT22;54576;52.020;5.536;2022-12-24T03:35:10;8.50;99.90
67777;DHT22;54576;52.020;5.536;2022-12-24T03:37:36;8.60;99.90
67777;DHT22;54576;52.020;5.536;2022-12-24T03:40:04;8.60;99.90
67777;DHT22;54576;52.020;5.536;2022-12-24T03:42:30;8.70;99.90
67777;DHT22;54576;52.020;5.536;2022-12-24T03:44:56;8.70;99.90
67777;DHT22;54576;52.020;5.536;2022-12-24T03:47:21;8.70;99.90
67777;DHT22;54576;52.020;5.536;2022-12-24T03:49:47;8.70;99.90
67777;DHT22;54576;52.020;5.536;2022-12-24T03:52:13;8.80;99.90
67777;DHT22;54576;52.020;5.536;2022-12-24T03:54:38;8.80;99.90
67777;DHT22;54576;52.020;5.536;2022-12-24T03:57:04;8.90;99.90
67777;DHT22;54576;52.020;5.536;2022-12-24T03:59:30;8.90;99.90
67777;DHT22;54576;52.020;5.536;2022-12-24T04:01:55;9.00;99.90
67777;DHT22;54576;52.020;5.536;2022-12-24T04:04:21;9.00;99.90
67777;DHT22;54576;52.020;5.536;2022-12-24T04:06:47;9.10;99.90
67777;DHT22;54576;52.020;5.536;2022-12-24T04:09:12;9.10;99.90
67777;DHT22;54576;52.020;5.536;2022-12-24T04:11:38;9.20;99.90
67777;DHT22;54576;52.020;5.536;2022-12-24T04:14:03;9.20;99.90
67777;DHT22;54576;52.020;5.536;2022-12-24T04:16:29;9.20;99.90
67777;DHT22;54576;52.020;5.536;2022-12-24T04:18:55;9.30;99.90
67777;DHT22;54576;52.020;5.536;2022-12-24T04:21:22;9.30;99.90
67777;DHT22;54576;52.020;5.536;2022-12-24T04:23:48;9.30;99.90
67777;DHT22;54576;52.020;5.536;2022-12-24T04:26:13;9.30;99.90
67777;DHT22;54576;52.020;5.536;2022-12-24T04:28:40;9.40;99.90
67777;DHT22;54576;52.020;5.536;2022-12-24T04:31:08;9.40;99.90
67777;DHT22;54576;52.020;5.536;2022-12-24T04:33:35;9.40;99.90
67777;DHT22;54576;52.020;5.536;2022-12-24T04:36:02;9.50;99.90
67777;DHT22;54576;52.020;5.536;2022-12-24T04:38:28;9.50;99.90
67777;DHT22;54576;52.020;5.536;2022-12-24T04:41:03;9.50;99.90
67777;DHT22;54576;52.020;5.536;2022-12-24T04:43:29;9.60;99.90
67777;DHT22;54576;52.020;5.536;2022-12-24T04:45:55;9.60;99.90
67777;DHT22;54576;52.020;5.536;2022-12-24T04:48:21;9.60;99.90
67777;DHT22;54576;52.020;5.536;2022-12-24T04:50:47;9.60;99.90
67777;DHT22;54576;52.020;5.536;2022-12-24T04:53:12;9.60;99.90
67777;DHT22;54576;52.020;5.536;2022-12-24T04:55:44;9.60;99.90
67777;DHT22;54576;52.020;5.536;2022-12-24T04:58:11;9.60;99.90
67777;DHT22;54576;52.020;5.536;2022-12-24T05:00:37;9.60;99.90
67777;DHT22;54576;52.020;5.536;2022-12-24T05:03:03;9.60;99.90
67777;DHT22;54576;52.020;5.536;2022-12-24T05:05:28;9.60;99.90
67777;DHT22;54576;52.020;5.536;2022-12-24T05:07:54;9.70;99.90
67777;DHT22;54576;52.020;5.536;2022-12-24T05:10:19;9.60;99.90
67777;DHT22;54576;52.020;5.536;2022-12-24T05:12:45;9.70;99.90
67777;DHT22;54576;52.020;5.536;2022-12-24T05:15:11;9.70;99.90
67777;DHT22;54576;52.020;5.536;2022-12-24T05:17:36;9.70;99.90
67777;DHT22;54576;52.020;5.536;2022-12-24T05:20:02;9.70;99.90
67777;DHT22;54576;52.020;5.536;2022-12-24T05:22:28;9.80;99.90
67777;DHT22;54576;52.020;5.536;2022-12-24T05:25:12;9.80;99.90
67777;DHT22;54576;52.020;5.536;2022-12-24T05:30:22;9.80;99.90
67777;DHT22;54576;52.020;5.536;2022-12-24T05:32:47;9.80;99.90
67777;DHT22;54576;52.020;5.536;2022-12-24T05:35:13;9.80;99.90
67777;DHT22;54576;52.020;5.536;2022-12-24T05:37:39;9.90;99.90
67777;DHT22;54576;52.020;5.536;2022-12-24T05:42:31;9.90;99.90
67777;DHT22;54576;52.020;5.536;2022-12-24T05:44:56;9.90;99.90
67777;DHT22;54576;52.020;5.536;2022-12-24T05:47:22;9.90;99.90
67777;DHT22;54576;52.020;5.536;2022-12-24T05:49:47;10.00;99.90
67777;DHT22;54576;52.020;5.536;2022-12-24T05:54:39;10.00;99.90
67777;DHT22;54576;52.020;5.536;2022-12-24T05:57:04;10.00;99.90
67777;DHT22;54576;52.020;5.536;2022-12-24T05:59:30;10.00;99.90
67777;DHT22;54576;52.020;5.536;2022-12-24T06:01:55;10.10;99.90
67777;DHT22;54576;52.020;5.536;2022-12-24T06:06:47;10.10;99.90
67777;DHT22;54576;52.020;5.536;2022-12-24T06:09:16;10.10;99.90
67777;DHT22;54576;52.020;5.536;2022-12-24T06:11:42;10.10;99.90
67777;DHT22;54576;52.020;5.536;2022-12-24T06:14:09;10.10;99.90
67777;DHT22;54576;52.020;5.536;2022-12-24T06:16:34;10.10;99.90
67777;DHT22;54576;52.020;5.536;2022-12-24T06:19:01;10.10;99.90
67777;DHT22;54576;52.020;5.536;2022-12-24T06:21:27;10.10;99.90
67777;DHT22;54576;52.020;5.536;2022-12-24T06:23:53;10.10;99.90
67777;DHT22;54576;52.020;5.536;2022-12-24T06:26:21;10.10;99.90
67777;DHT22;54576;52.020;5.536;2022-12-24T06:28:47;10.20;99.90
67777;DHT22;54576;52.020;5.536;2022-12-24T06:31:16;10.20;99.90
67777;DHT22;54576;52.020;5.536;2022-12-24T06:33:42;10.20;99.90
67777;DHT22;54576;52.020;5.536;2022-12-24T06:36:13;10.20;99.90
67777;DHT22;54576;52.020;5.536;2022-12-24T06:38:39;10.20;99.90
67777;DHT22;54576;52.020;5.536;2022-12-24T06:41:06;10.20;99.90
67777;DHT22;54576;52.020;5.536;2022-12-24T06:43:32;10.20;99.90
67777;DHT22;54576;52.020;5.536;2022-12-24T06:45:59;10.20;99.90
67777;DHT22;54576;52.020;5.536;2022-12-24T06:48:25;10.20;99.90
67777;DHT22;54576;52.020;5.536;2022-12-24T06:50:51;10.20;99.90
67777;DHT22;54576;52.020;5.536;2022-12-24T06:53:16;10.30;99.90
67777;DHT22;54576;52.020;5.536;2022-12-24T06:55:42;10.30;99.90
67777;DHT22;54576;52.020;5.536;2022-12-24T06:58:08;10.30;99.90
67777;DHT22;54576;52.020;5.536;2022-12-24T07:00:33;10.30;99.90
67777;DHT22;54576;52.020;5.536;2022-12-24T07:02:59;10.30;99.90
67777;DHT22;54576;52.020;5.536;2022-12-24T07:05:25;10.20;99.90
67777;DHT22;54576;52.020;5.536;2022-12-24T07:07:51;10.20;99.90
67777;DHT22;54576;52.020;5.536;2022-12-24T07:10:18;10.20;99.90
67777;DHT22;54576;52.020;5.536;2022-12-24T07:12:44;10.20;99.90
67777;DHT22;54576;52.020;5.536;2022-12-24T07:15:11;10.20;99.90
67777;DHT22;54576;52.020;5.536;2022-12-24T07:17:36;10.20;99.90
67777;DHT22;54576;52.020;5.536;2022-12-24T07:20:03;10.20;99.90
67777;DHT22;54576;52.020;5.536;2022-12-24T07:22:29;10.20;99.90
67777;DHT22;54576;52.020;5.536;2022-12-24T07:24:54;10.20;99.90
67777;DHT22;54576;52.020;5.536;2022-12-24T07:27:20;10.20;99.90
67777;DHT22;54576;52.020;5.536;2022-12-24T07:29:45;10.20;99.90
67777;DHT22;54576;52.020;5.536;2022-12-24T07:32:11;10.20;99.90
67777;DHT22;54576;52.020;5.536;2022-12-24T07:34:40;10.20;99.90
67777;DHT22;54576;52.020;5.536;2022-12-24T07:37:06;10.20;99.90
67777;DHT22;54576;52.020;5.536;2022-12-24T07:39:32;10.20;99.90
67777;DHT22;54576;52.020;5.536;2022-12-24T07:41:57;10.20;99.90
67777;DHT22;54576;52.020;5.536;2022-12-24T07:44:23;10.20;99.90
67777;DHT22;54576;52.020;5.536;2022-12-24T07:46:49;10.20;99.90
67777;DHT22;54576;52.020;5.536;2022-12-24T07:49:16;10.20;99.90
67777;DHT22;54576;52.020;5.536;2022-12-24T07:51:42;10.20;99.90
67777;DHT22;54576;52.020;5.536;2022-12-24T07:54:07;10.20;99.90
67777;DHT22;54576;52.020;5.536;2022-12-24T07:56:33;10.20;99.90
67777;DHT22;54576;52.020;5.536;2022-12-24T07:59:02;10.20;99.90
67777;DHT22;54576;52.020;5.536;2022-12-24T08:01:27;10.10;99.90
67777;DHT22;54576;52.020;5.536;2022-12-24T08:03:53;10.10;99.90
67777;DHT22;54576;52.020;5.536;2022-12-24T08:06:22;10.10;99.90
67777;DHT22;54576;52.020;5.536;2022-12-24T08:08:48;10.10;99.90
67777;DHT22;54576;52.020;5.536;2022-12-24T08:11:13;10.10;99.90
67777;DHT22;54576;52.020;5.536;2022-12-24T08:13:39;10.10;99.90
67777;DHT22;54576;52.020;5.536;2022-12-24T08:16:05;10.00;99.90
67777;DHT22;54576;52.020;5.536;2022-12-24T08:18:31;10.10;99.90
67777;DHT22;54576;52.020;5.536;2022-12-24T08:20:56;10.10;99.90
67777;DHT22;54576;52.020;5.536;2022-12-24T08:23:22;10.10;99.90
67777;DHT22;54576;52.020;5.536;2022-12-24T08:25:48;10.10;99.90
67777;DHT22;54576;52.020;5.536;2022-12-24T08:28:16;10.10;99.90
67777;DHT22;54576;52.020;5.536;2022-12-24T08:30:42;10.10;99.90
67777;DHT22;54576;52.020;5.536;2022-12-24T08:33:09;10.10;99.90
67777;DHT22;54576;52.020;5.536;2022-12-24T08:35:35;10.20;99.90
67777;DHT22;54576;52.020;5.536;2022-12-24T08:38:01;10.20;99.90
67777;DHT22;54576;52.020;5.536;2022-12-24T08:40:26;10.20;99.90
67777;DHT22;54576;52.020;5.536;2022-12-24T08:42:52;10.20;99.90
67777;DHT22;54576;52.020;5.536;2022-12-24T08:45:18;10.10;99.90
67777;DHT22;54576;52.020;5.536;2022-12-24T08:47:43;10.20;99.90
67777;DHT22;54576;52.020;5.536;2022-12-24T08:50:09;10.20;99.90
67777;DHT22;54576;52.020;5.536;2022-12-24T08:52:36;10.20;99.90
67777;DHT22;54576;52.020;5.536;2022-12-24T08:55:03;10.30;99.90
67777;DHT22;54576;52.020;5.536;2022-12-24T08:57:28;10.30;99.90
67777;DHT22;54576;52.020;5.536;2022-12-24T08:59:54;10.30;99.90
67777;DHT22;54576;52.020;5.536;2022-12-24T09:02:31;10.40;99.90
67777;DHT22;54576;52.020;5.536;2022-12-24T09:04:56;10.40;99.90
67777;DHT22;54576;52.020;5.536;2022-12-24T09:07:22;10.40;99.90
67777;DHT22;54576;52.020;5.536;2022-12-24T09:09:47;10.50;99.90
67777;DHT22;54576;52.020;5.536;2022-12-24T09:12:13;10.50;99.90
67777;DHT22;54576;52.020;5.536;2022-12-24T09:14:38;10.50;99.90
67777;DHT22;54576;52.020;5.536;2022-12-24T09:17:04;10.50;99.90
67777;DHT22;54576;52.020;5.536;2022-12-24T09:19:29;10.50;99.90
67777;DHT22;54576;52.020;5.536;2022-12-24T09:21:55;10.50;99.90
67777;DHT22;54576;52.020;5.536;2022-12-24T09:24:21;10.50;99.90
67777;DHT22;54576;52.020;5.536;2022-12-24T09:26:46;10.60;99.90
67777;DHT22;54576;52.020;5.536;2022-12-24T09:29:14;10.60;99.90
67777;DHT22;54576;52.020;5.536;2022-12-24T09:31:40;10.60;99.90
67777;DHT22;54576;52.020;5.536;2022-12-24T09:34:06;10.60;99.90
67777;DHT22;54576;52.020;5.536;2022-12-24T09:36:33;10.60;99.90
67777;DHT22;54576;52.020;5.536;2022-12-24T09:38:58;10.60;99.90
67777;DHT22;54576;52.020;5.536;2022-12-24T09:41:40;10.60;99.90
67777;DHT22;54576;52.020;5.536;2022-12-24T09:47:24;10.70;99.90
67777;DHT22;54576;52.020;5.536;2022-12-24T09:49:53;10.70;99.90
67777;DHT22;54576;52.020;5.536;2022-12-24T09:52:44;10.70;99.90
67777;DHT22;54576;52.020;5.536;2022-12-24T09:57:49;10.80;99.90
67777;DHT22;54576;52.020;5.536;2022-12-24T10:00:28;10.80;99.90
67777;DHT22;54576;52.020;5.536;2022-12-24T10:02:54;10.90;99.90
67777;DHT22;54576;52.020;5.536;2022-12-24T10:05:49;10.90;99.90
67777;DHT22;54576;52.020;5.536;2022-12-24T10:08:21;10.90;99.90
67777;DHT22;54576;52.020;5.536;2022-12-24T10:10:53;10.90;99.90
67777;DHT22;54576;52.020;5.536;2022-12-24T10:16:15;10.90;99.90
67777;DHT22;54576;52.020;5.536;2022-12-24T10:26:38;10.90;99.90
67777;DHT22;54576;52.020;5.536;2022-12-24T10:31:55;10.90;99.90
67777;DHT22;54576;52.020;5.536;2022-12-24T10:34:23;10.90;99.90
67777;DHT22;54576;52.020;5.536;2022-12-24T10:36:50;11.00;99.90
67777;DHT22;54576;52.020;5.536;2022-12-24T10:39:19;11.00;99.90
67777;DHT22;54576;52.020;5.536;2022-12-24T10:41:48;11.10;99.90
67777;DHT22;54576;52.020;5.536;2022-12-24T10:44:17;11.20;99.90
67777;DHT22;54576;52.020;5.536;2022-12-24T10:46:45;11.20;99.90
67777;DHT22;54576;52.020;5.536;2022-12-24T10:49:17;11.30;99.90
67777;DHT22;54576;52.020;5.536;2022-12-24T10:51:52;11.30;99.90
67777;DHT22;54576;52.020;5.536;2022-12-24T10:54:22;11.40;99.90
67777;DHT22;54576;52.020;5.536;2022-12-24T10:56:51;11.40;99.90
67777;DHT22;54576;52.020;5.536;2022-12-24T10:59:24;11.50;99.90
67777;DHT22;54576;52.020;5.536;2022-12-24T11:01:50;11.40;99.90
67777;DHT22;54576;52.020;5.536;2022-12-24T11:04:20;11.40;99.90
67777;DHT22;54576;52.020;5.536;2022-12-24T11:06:52;11.40;99.90
67777;DHT22;54576;52.020;5.536;2022-12-24T11:09:37;11.30;99.90
67777;DHT22;54576;52.020;5.536;2022-12-24T11:12:14;11.40;99.90
67777;DHT22;54576;52.020;5.536;2022-12-24T11:14:41;11.40;99.90
67777;DHT22;54576;52.020;5.536;2022-12-24T11:17:21;11.40;99.90
67777;DHT22;54576;52.020;5.536;2022-12-24T11:19:48;11.50;99.90
67777;DHT22;54576;52.020;5.536;2022-12-24T11:22:27;11.50;99.90
67777;DHT22;54576;52.020;5.536;2022-12-24T11:24:58;11.50;99.90
67777;DHT22;54576;52.020;5.536;2022-12-24T11:27:37;11.50;99.90
67777;DHT22;54576;52.020;5.536;2022-12-24T11:30:12;11.50;99.90
67777;DHT22;54576;52.020;5.536;2022-12-24T11:32:43;11.50;99.90
67777;DHT22;54576;52.020;5.536;2022-12-24T11:35:19;11.50;99.90
67777;DHT22;54576;52.020;5.536;2022-12-24T11:40:42;11.40;99.90
67777;DHT22;54576;52.020;5.536;2022-12-24T11:43:18;11.40;99.90
67777;DHT22;54576;52.020;5.536;2022-12-24T11:45:55;11.30;99.90
67777;DHT22;54576;52.020;5.536;2022-12-24T11:48:31;11.30;99.90
67777;DHT22;54576;52.020;5.536;2022-12-24T11:51:05;11.20;99.90
67777;DHT22;54576;52.020;5.536;2022-12-24T11:56:34;11.20;99.90
67777;DHT22;54576;52.020;5.536;2022-12-24T11:59:21;11.20;99.90
67777;DHT22;54576;52.020;5.536;2022-12-24T12:04:24;11.20;99.90
67777;DHT22;54576;52.020;5.536;2022-12-24T12:07:10;11.20;99.90
67777;DHT22;54576;52.020;5.536;2022-12-24T12:10:02;11.20;99.90
67777;DHT22;54576;52.020;5.536;2022-12-24T12:12:32;11.30;99.90
67777;DHT22;54576;52.020;5.536;2022-12-24T12:15:20;11.30;99.90
67777;DHT22;54576;52.020;5.536;2022-12-24T12:23:32;11.30;99.90
67777;DHT22;54576;52.020;5.536;2022-12-24T12:26:14;11.30;99.90
67777;DHT22;54576;52.020;5.536;2022-12-24T12:28:48;11.30;99.90
67777;DHT22;54576;52.020;5.536;2022-12-24T12:31:37;11.30;99.90
67777;DHT22;54576;52.020;5.536;2022-12-24T12:34:16;11.30;99.90
67777;DHT22;54576;52.020;5.536;2022-12-24T12:37:13;11.30;99.90
67777;DHT22;54576;52.020;5.536;2022-12-24T12:42:31;11.20;99.90
67777;DHT22;54576;52.020;5.536;2022-12-24T12:50:48;11.30;99.90
67777;DHT22;54576;52.020;5.536;2022-12-24T12:58:30;11.30;99.90
67777;DHT22;54576;52.020;5.536;2022-12-24T13:01:12;11.30;99.90
67777;DHT22;54576;52.020;5.536;2022-12-24T13:20:01;11.10;99.90
67777;DHT22;54576;52.020;5.536;2022-12-24T13:25:02;11.10;99.90
67777;DHT22;54576;52.020;5.536;2022-12-24T13:27:30;11.20;99.90
67777;DHT22;54576;52.020;5.536;2022-12-24T13:30:02;11.20;99.90
67777;DHT22;54576;52.020;5.536;2022-12-24T13:32:39;11.30;99.90
67777;DHT22;54576;52.020;5.536;2022-12-24T13:40:25;11.20;99.90
67777;DHT22;54576;52.020;5.536;2022-12-24T13:45:41;11.10;99.90
67777;DHT22;54576;52.020;5.536;2022-12-24T13:50:39;11.20;99.90
67777;DHT22;54576;52.020;5.536;2022-12-24T13:53:17;11.20;99.90
67777;DHT22;54576;52.020;5.536;2022-12-24T13:55:54;11.20;99.90
67777;DHT22;54576;52.020;5.536;2022-12-24T13:58:23;11.20;99.90
67777;DHT22;54576;52.020;5.536;2022-12-24T14:03:25;11.30;99.90
67777;DHT22;54576;52.020;5.536;2022-12-24T14:06:05;11.20;99.90
67777;DHT22;54576;52.020;5.536;2022-12-24T14:16:23;11.20;99.90
67777;DHT22;54576;52.020;5.536;2022-12-24T14:19:01;11.10;99.90
67777;DHT22;54576;52.020;5.536;2022-12-24T14:21:42;11.20;99.90
67777;DHT22;54576;52.020;5.536;2022-12-24T14:26:59;11.20;99.90
67777;DHT22;54576;52.020;5.536;2022-12-24T14:29:38;11.20;99.90
67777;DHT22;54576;52.020;5.536;2022-12-24T14:32:15;11.30;99.90
67777;DHT22;54576;52.020;5.536;2022-12-24T14:34:42;11.20;99.90
67777;DHT22;54576;52.020;5.536;2022-12-24T14:37:09;11.30;99.90
67777;DHT22;54576;52.020;5.536;2022-12-24T14:39:45;11.20;99.90
67777;DHT22;54576;52.020;5.536;2022-12-24T14:42:38;11.20;99.90
67777;DHT22;54576;52.020;5.536;2022-12-24T14:45:37;11.00;99.90
67777;DHT22;54576;52.020;5.536;2022-12-24T14:48:28;11.00;99.90
67777;DHT22;54576;52.020;5.536;2022-12-24T14:51:24;10.90;99.90
67777;DHT22;54576;52.020;5.536;2022-12-24T15:05:23;10.60;99.90
67777;DHT22;54576;52.020;5.536;2022-12-24T15:07:54;10.60;99.90
67777;DHT22;54576;52.020;5.536;2022-12-24T15:10:38;10.50;99.90
67777;DHT22;54576;52.020;5.536;2022-12-24T15:13:23;10.40;99.90
67777;DHT22;54576;52.020;5.536;2022-12-24T15:15:51;10.40;99.90
67777;DHT22;54576;52.020;5.536;2022-12-24T15:18:28;10.30;99.90
67777;DHT22;54576;52.020;5.536;2022-12-24T15:20:58;10.30;99.90
67777;DHT22;54576;52.020;5.536;2022-12-24T15:23:36;10.20;99.90
67777;DHT22;54576;52.020;5.536;2022-12-24T15:26:21;10.20;99.90
67777;DHT22;54576;52.020;5.536;2022-12-24T15:28:47;10.10;99.90
67777;DHT22;54576;52.020;5.536;2022-12-24T15:31:15;10.10;99.90
67777;DHT22;54576;52.020;5.536;2022-12-24T15:33:47;10.00;99.90
67777;DHT22;54576;52.020;5.536;2022-12-24T15:36:14;9.90;99.90
67777;DHT22;54576;52.020;5.536;2022-12-24T15:38:42;9.90;99.90
67777;DHT22;54576;52.020;5.536;2022-12-24T15:41:18;9.80;99.90
67777;DHT22;54576;52.020;5.536;2022-12-24T15:43:46;9.80;99.90
67777;DHT22;54576;52.020;5.536;2022-12-24T15:46:25;9.80;99.90
67777;DHT22;54576;52.020;5.536;2022-12-24T15:48:54;9.70;99.90
67777;DHT22;54576;52.020;5.536;2022-12-24T15:51:26;9.70;99.90
67777;DHT22;54576;52.020;5.536;2022-12-24T15:53:57;9.60;99.90
67777;DHT22;54576;52.020;5.536;2022-12-24T15:56:39;9.60;99.90
67777;DHT22;54576;52.020;5.536;2022-12-24T15:59:28;9.50;99.90
67777;DHT22;54576;52.020;5.536;2022-12-24T16:01:56;9.50;99.90
67777;DHT22;54576;52.020;5.536;2022-12-24T16:04:44;9.40;99.90
67777;DHT22;54576;52.020;5.536;2022-12-24T16:07:10;9.40;99.90
67777;DHT22;54576;52.020;5.536;2022-12-24T16:09:47;9.30;99.90
67777;DHT22;54576;52.020;5.536;2022-12-24T16:12:21;9.30;99.90
67777;DHT22;54576;52.020;5.536;2022-12-24T16:14:56;9.30;99.90
67777;DHT22;54576;52.020;5.536;2022-12-24T16:17:25;9.30;99.90
67777;DHT22;54576;52.020;5.536;2022-12-24T16:19:54;9.20;99.90
67777;DHT22;54576;52.020;5.536;2022-12-24T16:22:21;9.20;99.90
67777;DHT22;54576;52.020;5.536;2022-12-24T16:27:50;9.10;99.90
67777;DHT22;54576;52.020;5.536;2022-12-24T16:30:17;9.10;99.90
67777;DHT22;54576;52.020;5.536;2022-12-24T16:32:45;9.10;99.90
67777;DHT22;54576;52.020;5.536;2022-12-24T16:35:25;9.10;99.90
67777;DHT22;54576;52.020;5.536;2022-12-24T16:37:51;9.00;99.90
67777;DHT22;54576;52.020;5.536;2022-12-24T16:40:16;9.00;99.90
67777;DHT22;54576;52.020;5.536;2022-12-24T16:42:42;8.90;99.90
67777;DHT22;54576;52.020;5.536;2022-12-24T16:45:28;8.90;99.90
67777;DHT22;54576;52.020;5.536;2022-12-24T16:47:57;8.90;99.90
67777;DHT22;54576;52.020;5.536;2022-12-24T16:50:23;8.80;99.90
67777;DHT22;54576;52.020;5.536;2022-12-24T16:52:48;8.80;99.90
67777;DHT22;54576;52.020;5.536;2022-12-24T16:55:14;8.70;99.90
67777;DHT22;54576;52.020;5.536;2022-12-24T16:57:41;8.70;99.90
67777;DHT22;54576;52.020;5.536;2022-12-24T17:00:18;8.70;99.90
67777;DHT22;54576;52.020;5.536;2022-12-24T17:02:46;8.70;99.90
67777;DHT22;54576;52.020;5.536;2022-12-24T17:05:12;8.60;99.90
67777;DHT22;54576;52.020;5.536;2022-12-24T17:07:38;8.60;99.90
67777;DHT22;54576;52.020;5.536;2022-12-24T17:10:04;8.60;99.90
67777;DHT22;54576;52.020;5.536;2022-12-24T17:12:30;8.50;99.90
67777;DHT22;54576;52.020;5.536;2022-12-24T17:14:55;8.50;99.90
67777;DHT22;54576;52.020;5.536;2022-12-24T17:17:26;8.50;99.90
67777;DHT22;54576;52.020;5.536;2022-12-24T17:19:52;8.50;99.90
67777;DHT22;54576;52.020;5.536;2022-12-24T17:22:18;8.40;99.90
67777;DHT22;54576;52.020;5.536;2022-12-24T17:24:44;8.40;99.90
67777;DHT22;54576;52.020;5.536;2022-12-24T17:27:10;8.40;99.90
67777;DHT22;54576;52.020;5.536;2022-12-24T17:29:36;8.40;99.90
67777;DHT22;54576;52.020;5.536;2022-12-24T17:32:01;8.30;99.90
67777;DHT22;54576;52.020;5.536;2022-12-24T17:34:27;8.30;99.90
67777;DHT22;54576;52.020;5.536;2022-12-24T17:36:53;8.30;99.90
67777;DHT22;54576;52.020;5.536;2022-12-24T17:39:19;8.30;99.90
67777;DHT22;54576;52.020;5.536;2022-12-24T17:41:44;8.30;99.90
67777;DHT22;54576;52.020;5.536;2022-12-24T17:44:12;8.30;99.90
67777;DHT22;54576;52.020;5.536;2022-12-24T17:46:38;8.20;99.90
67777;DHT22;54576;52.020;5.536;2022-12-24T17:49:04;8.20;99.90
67777;DHT22;54576;52.020;5.536;2022-12-24T17:51:29;8.20;99.90
67777;DHT22;54576;52.020;5.536;2022-12-24T17:53:58;8.20;99.90
67777;DHT22;54576;52.020;5.536;2022-12-24T17:56:24;8.10;99.90
67777;DHT22;54576;52.020;5.536;2022-12-24T17:58:50;8.10;99.90
67777;DHT22;54576;52.020;5.536;2022-12-24T18:01:21;8.10;99.90
67777;DHT22;54576;52.020;5.536;2022-12-24T18:03:48;8.10;99.90
67777;DHT22;54576;52.020;5.536;2022-12-24T18:06:14;8.10;99.90